createdAt,value
2022-11-25T00:01:09.186Z,1.97
2022-11-25T00:03:42.029Z,2.00
2022-11-25T00:06:17.295Z,2.02
2022-11-25T00:08:51.849Z,2.03
2022-11-25T00:11:24.019Z,2.04
2022-11-25T00:13:57.018Z,2.04
2022-11-25T00:16:29.433Z,2.04
2022-11-25T00:19:02.055Z,2.06
2022-11-25T00:21:37.059Z,2.08
2022-11-25T00:24:10.266Z,2.07
2022-11-25T00:26:42.361Z,2.05
2022-11-25T00:29:15.323Z,2.05
2022-11-25T00:31:47.652Z,2.06
2022-11-25T00:34:20.011Z,2.05
2022-11-25T00:36:53.443Z,2.06
2022-11-25T00:39:27.167Z,2.08
2022-11-25T00:42:16.955Z,2.10
2022-11-25T00:44:49.086Z,2.11
2022-11-25T00:47:22.848Z,2.11
2022-11-25T00:49:55.588Z,2.09
2022-11-25T00:52:28.752Z,2.04
2022-11-25T00:55:03.201Z,1.99
2022-11-25T00:57:36.383Z,1.95
2022-11-25T01:00:11.852Z,1.93
2022-11-25T01:02:50.901Z,1.95
2022-11-25T01:08:37.456Z,2.04
2022-11-25T01:11:12.758Z,1.96
2022-11-25T01:13:44.929Z,1.99
2022-11-25T01:16:19.708Z,1.98
2022-11-25T01:18:52.800Z,1.96
2022-11-25T01:21:27.275Z,1.98
2022-11-25T01:24:00.231Z,2.00
2022-11-25T01:26:33.440Z,2.00
2022-11-25T01:29:07.687Z,1.99
2022-11-25T01:31:40.221Z,2.00
2022-11-25T01:34:17.406Z,2.01
2022-11-25T01:36:49.957Z,2.03
2022-11-25T01:39:28.602Z,2.04
2022-11-25T01:42:04.828Z,2.02
2022-11-25T01:44:40.439Z,2.03
2022-11-25T01:47:17.347Z,2.04
2022-11-25T01:49:55.555Z,2.05
2022-11-25T01:52:32.772Z,2.07
2022-11-25T01:55:08.280Z,2.08
2022-11-25T01:57:45.508Z,2.08
2022-11-25T02:00:20.351Z,2.07
2022-11-25T02:02:56.409Z,2.06
2022-11-25T02:05:37.106Z,2.04
2022-11-25T02:08:10.797Z,2.06
2022-11-25T02:10:44.285Z,2.07
2022-11-25T02:13:16.790Z,2.09
2022-11-25T02:15:50.407Z,2.11
2022-11-25T02:18:23.043Z,2.13
2022-11-25T02:20:55.564Z,2.14
2022-11-25T02:23:39.561Z,2.13
2022-11-25T02:26:11.903Z,2.13
2022-11-25T02:28:44.791Z,2.14
2022-11-25T02:31:22.614Z,2.16
2022-11-25T02:33:56.677Z,2.18
2022-11-25T02:36:29.034Z,2.20
2022-11-25T02:39:02.842Z,2.22
2022-11-25T02:41:42.609Z,2.21
2022-11-25T02:44:18.496Z,2.20
2022-11-25T02:46:50.730Z,2.21
2022-11-25T02:49:25.422Z,2.22
2022-11-25T02:51:59.253Z,2.23
2022-11-25T02:54:33.107Z,2.25
2022-11-25T02:57:08.354Z,2.25
2022-11-25T02:59:40.798Z,2.24
2022-11-25T03:02:13.032Z,2.23
2022-11-25T03:04:45.180Z,2.23
2022-11-25T03:07:17.350Z,2.23
2022-11-25T03:09:49.897Z,2.24
2022-11-25T03:12:22.738Z,2.22
2022-11-25T03:15:01.277Z,2.19
2022-11-25T03:17:34.259Z,2.20
2022-11-25T03:20:10.519Z,2.21
2022-11-25T03:22:43.043Z,2.21
2022-11-25T03:25:17.077Z,2.21
2022-11-25T03:27:50.175Z,2.21
2022-11-25T03:30:25.177Z,2.23
2022-11-25T03:32:59.657Z,2.23
2022-11-25T03:35:32.132Z,2.23
2022-11-25T03:38:04.307Z,2.24
2022-11-25T03:40:38.919Z,2.25
2022-11-25T03:43:11.252Z,2.24
2022-11-25T03:45:44.793Z,2.24
2022-11-25T03:48:17.802Z,2.23
2022-11-25T03:50:52.269Z,2.24
2022-11-25T03:53:24.961Z,2.26
2022-11-25T03:55:57.843Z,2.27
2022-11-25T03:58:30.419Z,2.28
2022-11-25T04:01:05.450Z,2.30
2022-11-25T04:03:37.752Z,2.31
2022-11-25T04:06:16.031Z,2.30
2022-11-25T04:08:53.222Z,2.30
2022-11-25T04:11:46.612Z,2.31
2022-11-25T04:14:18.989Z,2.31
2022-11-25T04:16:52.482Z,2.32
2022-11-25T04:19:25.340Z,2.33
2022-11-25T04:21:59.768Z,2.33
2022-11-25T04:24:33.549Z,2.34
2022-11-25T04:27:08.391Z,2.35
2022-11-25T04:29:40.702Z,2.36
2022-11-25T04:32:13.540Z,2.36
2022-11-25T04:34:45.750Z,2.36
2022-11-25T04:37:20.594Z,2.36
2022-11-25T04:39:53.749Z,2.35
2022-11-25T04:42:36.744Z,2.33
2022-11-25T04:45:23.096Z,2.32
2022-11-25T04:47:56.372Z,2.32
2022-11-25T04:50:28.651Z,2.33
2022-11-25T04:53:07.056Z,2.34
2022-11-25T04:55:39.209Z,2.35
2022-11-25T04:58:40.045Z,2.34
2022-11-25T05:01:13.336Z,2.31
2022-11-25T05:03:56.015Z,2.28
2022-11-25T05:06:30.173Z,2.28
2022-11-25T05:09:02.519Z,2.29
2022-11-25T05:11:36.153Z,2.29
2022-11-25T05:14:08.503Z,2.27
2022-11-25T05:16:40.745Z,2.27
2022-11-25T05:19:14.219Z,2.28
2022-11-25T05:21:46.694Z,2.28
2022-11-25T05:24:19.479Z,2.27
2022-11-25T05:26:53.283Z,2.25
2022-11-25T05:29:25.716Z,2.24
2022-11-25T05:31:58.692Z,2.24
2022-11-25T05:34:30.989Z,2.24
2022-11-25T05:37:04.002Z,2.25
2022-11-25T05:39:38.746Z,2.24
2022-11-25T05:42:32.192Z,2.26
2022-11-25T05:45:07.720Z,2.27
2022-11-25T05:47:40.160Z,2.29
2022-11-25T05:50:12.810Z,2.28
2022-11-25T05:52:45.523Z,2.29
2022-11-25T05:55:17.925Z,2.31
2022-11-25T05:57:51.474Z,2.32
2022-11-25T06:00:26.729Z,2.33
2022-11-25T06:02:59.304Z,2.36
2022-11-25T06:05:32.667Z,2.37
2022-11-25T06:08:05.048Z,2.37
2022-11-25T06:10:39.052Z,2.37
2022-11-25T06:13:11.644Z,2.38
2022-11-25T06:15:46.456Z,2.37
2022-11-25T06:18:22.293Z,2.35
2022-11-25T06:21:01.005Z,2.33
2022-11-25T06:23:34.625Z,2.32
2022-11-25T06:26:10.437Z,2.31
2022-11-25T06:28:42.927Z,2.30
2022-11-25T06:31:21.494Z,2.29
2022-11-25T06:34:03.109Z,2.29
2022-11-25T06:36:35.458Z,2.30
2022-11-25T06:39:07.743Z,2.29
2022-11-25T06:41:41.490Z,2.27
2022-11-25T06:44:13.669Z,2.28
2022-11-25T06:46:46.026Z,2.31
2022-11-25T06:49:18.562Z,2.30
2022-11-25T06:51:53.494Z,2.28
2022-11-25T06:54:25.790Z,2.29
2022-11-25T06:56:58.050Z,2.29
2022-11-25T06:59:32.339Z,2.28
2022-11-25T07:02:05.205Z,2.28
2022-11-25T07:04:38.569Z,2.28
2022-11-25T07:07:11.056Z,2.28
2022-11-25T07:09:43.560Z,2.29
2022-11-25T07:12:15.681Z,2.34
2022-11-25T07:14:51.363Z,2.37
2022-11-25T07:17:23.929Z,2.40
2022-11-25T07:19:56.124Z,2.44
2022-11-25T07:22:30.534Z,2.49
2022-11-25T07:25:02.770Z,2.55
2022-11-25T07:27:35.654Z,2.63
2022-11-25T07:31:09.371Z,2.72
2022-11-25T07:33:02.113Z,2.80
2022-11-25T07:35:35.102Z,2.87
2022-11-25T07:38:07.403Z,2.94
2022-11-25T07:40:39.483Z,2.99
2022-11-25T07:43:13.866Z,3.03
2022-11-25T07:45:45.934Z,3.03
2022-11-25T07:48:18.154Z,3.04
2022-11-25T07:50:50.837Z,3.07
2022-11-25T07:53:23.128Z,3.09
2022-11-25T07:55:55.346Z,3.11
2022-11-25T07:58:27.382Z,3.11
2022-11-25T08:01:02.922Z,3.15
2022-11-25T08:03:37.175Z,3.20
2022-11-25T08:06:12.471Z,3.24
2022-11-25T08:08:45.850Z,3.22
2022-11-25T08:11:20.890Z,3.24
2022-11-25T08:13:53.312Z,3.27
2022-11-25T08:16:27.855Z,3.31
2022-11-25T08:19:02.217Z,3.38
2022-11-25T08:21:34.367Z,3.45
2022-11-25T08:24:07.245Z,3.47
2022-11-25T08:26:40.911Z,3.50
2022-11-25T08:29:17.418Z,3.55
2022-11-25T08:31:49.951Z,3.64
2022-11-25T08:34:25.053Z,3.71
2022-11-25T08:36:59.622Z,3.76
2022-11-25T08:42:24.006Z,3.85
2022-11-25T08:44:57.116Z,3.88
2022-11-25T08:47:29.310Z,3.92
2022-11-25T08:50:01.803Z,3.97
2022-11-25T08:52:33.962Z,3.99
2022-11-25T08:55:07.426Z,4.05
2022-11-25T08:57:39.684Z,4.15
2022-11-25T09:00:14.542Z,4.24
2022-11-25T09:06:06.160Z,4.20
2022-11-25T09:08:39.982Z,4.17
2022-11-25T09:11:12.442Z,4.19
2022-11-25T09:13:44.799Z,4.20
2022-11-25T09:16:17.081Z,4.21
2022-11-25T09:18:55.333Z,4.24
2022-11-25T09:21:28.501Z,4.31
2022-11-25T09:24:01.241Z,4.38
2022-11-25T09:26:35.798Z,4.42
2022-11-25T09:29:13.020Z,4.44
2022-11-25T09:31:47.827Z,4.49
2022-11-25T09:34:25.817Z,4.47
2022-11-25T09:36:57.943Z,4.46
2022-11-25T09:39:32.215Z,4.44
2022-11-25T09:42:58.352Z,4.47
2022-11-25T09:45:55.324Z,4.50
2022-11-25T09:48:40.644Z,4.52
2022-11-25T09:51:22.763Z,4.55
2022-11-25T09:53:59.400Z,4.59
2022-11-25T09:56:40.134Z,4.63
2022-11-25T09:59:16.803Z,4.66
2022-11-25T10:01:53.857Z,4.71
2022-11-25T10:04:32.575Z,4.71
2022-11-25T10:07:05.691Z,4.70
2022-11-25T10:09:38.483Z,4.70
2022-11-25T10:12:20.768Z,4.67
2022-11-25T10:14:57.094Z,4.63
2022-11-25T10:17:37.580Z,4.61
2022-11-25T10:20:18.373Z,4.60
2022-11-25T10:22:53.491Z,4.61
2022-11-25T10:25:28.925Z,4.63
2022-11-25T10:28:02.911Z,4.66
2022-11-25T10:30:40.784Z,4.73
2022-11-25T10:33:24.122Z,4.80
2022-11-25T10:35:59.716Z,4.87
2022-11-25T10:38:37.299Z,4.91
2022-11-25T10:41:14.163Z,4.96
2022-11-25T10:43:47.104Z,5.03
2022-11-25T10:46:49.640Z,5.11
2022-11-25T10:49:27.584Z,5.21
2022-11-25T10:52:05.120Z,5.33
2022-11-25T10:54:37.815Z,5.41
2022-11-25T10:57:21.660Z,5.48
2022-11-25T10:59:59.818Z,5.54
2022-11-25T11:02:39.354Z,5.60
2022-11-25T11:05:24.509Z,5.66
2022-11-25T11:11:16.708Z,5.72
2022-11-25T11:13:51.703Z,5.67
2022-11-25T11:16:31.129Z,5.67
2022-11-25T11:19:04.032Z,5.74
2022-11-25T11:21:39.007Z,5.75
2022-11-25T11:24:28.523Z,5.73
2022-11-25T11:27:16.160Z,5.70
2022-11-25T11:29:48.357Z,5.74
2022-11-25T11:32:26.272Z,5.76
2022-11-25T11:35:09.127Z,5.77
2022-11-25T11:37:45.295Z,5.77
2022-11-25T11:40:43.547Z,5.75
2022-11-25T11:43:50.740Z,5.73
2022-11-25T11:46:33.096Z,5.62
2022-11-25T11:49:30.229Z,5.57
2022-11-25T11:52:12.722Z,5.57
2022-11-25T11:54:51.439Z,5.58
2022-11-25T11:57:35.595Z,5.60
2022-11-25T12:00:10.513Z,5.61
2022-11-25T12:03:01.737Z,5.58
2022-11-25T12:05:37.269Z,5.57
2022-11-25T12:08:18.246Z,5.62
2022-11-25T12:10:54.642Z,5.67
2022-11-25T12:13:35.238Z,5.68
2022-11-25T12:16:10.321Z,5.69
2022-11-25T12:18:50.403Z,5.69
2022-11-25T12:21:41.880Z,5.69
2022-11-25T12:24:21.160Z,5.67
2022-11-25T12:26:59.108Z,5.65
2022-11-25T12:29:40.640Z,5.65
2022-11-25T12:32:41.447Z,5.66
2022-11-25T12:35:18.262Z,5.67
2022-11-25T12:37:56.150Z,5.67
2022-11-25T12:40:34.905Z,5.68
2022-11-25T12:43:26.184Z,5.67
2022-11-25T12:46:11.307Z,5.67
2022-11-25T12:48:44.944Z,5.68
2022-11-25T12:51:42.390Z,5.71
2022-11-25T12:54:29.723Z,5.69
2022-11-25T12:57:43.147Z,5.67
2022-11-25T13:00:42.309Z,5.66
2022-11-25T13:03:41.513Z,5.65
2022-11-25T13:06:41.266Z,5.66
2022-11-25T13:09:30.478Z,5.64
2022-11-25T13:12:18.765Z,5.59
2022-11-25T13:15:18.197Z,5.54
2022-11-25T13:17:55.692Z,5.52
2022-11-25T13:20:43.866Z,5.51
2022-11-25T13:23:24.879Z,5.51
2022-11-25T13:26:37.765Z,5.53
2022-11-25T13:29:59.194Z,5.56
2022-11-25T13:32:37.093Z,5.51
2022-11-25T13:35:35.821Z,5.46
2022-11-25T13:38:50.338Z,5.43
2022-11-25T13:41:34.630Z,5.41
2022-11-25T13:44:16.861Z,5.39
2022-11-25T13:46:52.699Z,5.39
2022-11-25T13:49:39.550Z,5.39
2022-11-25T13:52:32.531Z,5.38
2022-11-25T13:55:11.679Z,5.38
2022-11-25T13:57:48.544Z,5.37
2022-11-25T14:01:02.360Z,5.38
2022-11-25T14:03:57.473Z,5.36
2022-11-25T14:07:05.363Z,5.33
2022-11-25T14:09:57.393Z,5.31
2022-11-25T14:12:50.488Z,5.29
2022-11-25T14:15:43.319Z,5.25
2022-11-25T14:19:17.324Z,5.22
2022-11-25T14:21:51.740Z,5.20
2022-11-25T14:24:37.112Z,5.19
2022-11-25T14:27:18.477Z,5.14
2022-11-25T14:29:57.918Z,5.11
2022-11-25T14:32:36.880Z,5.12
2022-11-25T14:35:15.053Z,5.08
2022-11-25T14:37:51.754Z,5.06
2022-11-25T14:40:26.912Z,5.04
2022-11-25T14:43:05.395Z,5.01
2022-11-25T14:45:38.274Z,4.93
2022-11-25T14:48:18.630Z,4.90
2022-11-25T14:51:02.729Z,4.87
2022-11-25T14:53:47.912Z,4.85
2022-11-25T14:56:28.204Z,4.84
2022-11-25T14:59:01.747Z,4.83
2022-11-25T15:01:35.009Z,4.79
2022-11-25T15:04:09.333Z,4.74
2022-11-25T15:06:44.474Z,4.71
2022-11-25T15:09:23.937Z,4.70
2022-11-25T15:12:00.133Z,4.69
2022-11-25T15:14:35.791Z,4.65
2022-11-25T15:17:19.097Z,4.61
2022-11-25T15:19:54.850Z,4.55
2022-11-25T15:22:27.041Z,4.53
2022-11-25T15:25:11.506Z,4.53
2022-11-25T15:27:49.571Z,4.52
2022-11-25T15:30:25.162Z,4.48
2022-11-25T15:32:58.425Z,4.48
2022-11-25T15:35:30.830Z,4.48
2022-11-25T15:38:17.366Z,4.45
2022-11-25T15:40:59.227Z,4.41
2022-11-25T15:43:32.865Z,4.36
2022-11-25T15:46:06.956Z,4.32
2022-11-25T15:48:45.233Z,4.29
2022-11-25T15:51:34.803Z,4.27
2022-11-25T15:54:16.803Z,4.19
2022-11-25T15:56:52.148Z,4.13
2022-11-25T15:59:47.333Z,4.12
2022-11-25T16:02:52.818Z,4.14
2022-11-25T16:05:38.933Z,4.11
2022-11-25T16:08:32.557Z,4.09
2022-11-25T16:11:18.440Z,4.02
2022-11-25T16:13:52.271Z,3.98
2022-11-25T16:16:27.903Z,3.97
2022-11-25T16:19:18.401Z,3.96
2022-11-25T16:21:55.751Z,3.96
2022-11-25T16:24:41.625Z,3.95
2022-11-25T16:27:25.137Z,3.91
2022-11-25T16:29:59.639Z,3.94
2022-11-25T16:32:34.034Z,3.96
2022-11-25T16:35:16.020Z,3.98
2022-11-25T16:37:49.593Z,4.02
2022-11-25T16:40:22.121Z,4.04
2022-11-25T16:42:54.492Z,4.06
2022-11-25T16:45:28.496Z,4.13
2022-11-25T16:48:01.037Z,4.18
2022-11-25T16:50:33.568Z,4.21
2022-11-25T16:53:05.817Z,4.19
2022-11-25T16:55:38.817Z,4.16
2022-11-25T16:58:17.909Z,4.14
2022-11-25T17:00:52.952Z,4.12
2022-11-25T17:03:26.825Z,4.10
2022-11-25T17:06:00.094Z,4.08
2022-11-25T17:08:33.349Z,4.08
2022-11-25T17:11:05.608Z,4.09
2022-11-25T17:13:43.650Z,4.09
2022-11-25T17:16:18.530Z,4.09
2022-11-25T17:18:56.589Z,4.10
2022-11-25T17:21:29.379Z,4.12
2022-11-25T17:24:07.566Z,4.13
2022-11-25T17:26:43.422Z,4.16
2022-11-25T17:29:19.862Z,4.18
2022-11-25T17:31:57.978Z,4.17
2022-11-25T17:34:34.896Z,4.11
2022-11-25T17:37:16.573Z,4.08
2022-11-25T17:39:49.423Z,4.07
2022-11-25T17:42:24.767Z,4.06
2022-11-25T17:44:57.097Z,4.05
2022-11-25T17:47:29.396Z,4.02
2022-11-25T17:50:01.818Z,4.00
2022-11-25T17:52:34.063Z,3.98
2022-11-25T17:55:06.699Z,3.95
2022-11-25T17:57:39.105Z,3.90
2022-11-25T18:00:16.789Z,3.89
2022-11-25T18:02:49.609Z,3.88
2022-11-25T18:05:24.232Z,3.84
2022-11-25T18:07:56.698Z,3.83
2022-11-25T18:10:29.873Z,3.84
2022-11-25T18:13:04.291Z,3.86
2022-11-25T18:15:38.549Z,3.87
2022-11-25T18:18:25.343Z,3.88
2022-11-25T18:20:57.502Z,3.89
2022-11-25T18:23:29.723Z,3.91
2022-11-25T18:26:03.982Z,3.92
2022-11-25T18:28:36.378Z,3.89
2022-11-25T18:31:11.968Z,3.84
2022-11-25T18:33:44.383Z,3.83
2022-11-25T18:36:16.803Z,3.82
2022-11-25T18:38:50.913Z,3.83
2022-11-25T18:41:23.853Z,3.85
2022-11-25T18:44:02.865Z,3.88
2022-11-25T18:46:38.851Z,3.82
2022-11-25T18:49:14.811Z,3.76
2022-11-25T18:51:47.358Z,3.75
2022-11-25T18:54:19.627Z,3.73
2022-11-25T18:56:53.292Z,3.68
2022-11-25T18:59:33.440Z,3.68
2022-11-25T19:02:11.767Z,3.72
2022-11-25T19:04:44.341Z,3.75
2022-11-25T19:07:16.883Z,3.75
2022-11-25T19:09:49.032Z,3.75
2022-11-25T19:12:22.205Z,3.74
2022-11-25T19:14:57.278Z,3.74
2022-11-25T19:17:29.656Z,3.69
2022-11-25T19:20:02.095Z,3.58
2022-11-25T19:22:34.210Z,3.52
2022-11-25T19:25:06.513Z,3.46
2022-11-25T19:27:42.873Z,3.42
2022-11-25T19:30:19.384Z,3.36
2022-11-25T19:32:55.012Z,3.31
2022-11-25T19:35:32.734Z,3.31
2022-11-25T19:38:08.514Z,3.33
2022-11-25T19:40:41.137Z,3.34
2022-11-25T19:43:13.233Z,3.33
2022-11-25T19:45:46.613Z,3.31
2022-11-25T19:48:21.726Z,3.33
2022-11-25T19:50:59.813Z,3.36
2022-11-25T19:53:34.367Z,3.37
2022-11-25T19:56:07.221Z,3.35
2022-11-25T19:58:39.255Z,3.34
2022-11-25T20:01:16.890Z,3.37
2022-11-25T20:03:51.072Z,3.40
2022-11-25T20:06:23.953Z,3.42
2022-11-25T20:08:59.783Z,3.41
2022-11-25T20:11:37.761Z,3.36
2022-11-25T20:14:09.888Z,3.34
2022-11-25T20:16:43.994Z,3.30
2022-11-25T20:19:19.774Z,3.27
2022-11-25T20:21:52.007Z,3.28
2022-11-25T20:24:24.277Z,3.28
2022-11-25T20:26:57.839Z,3.30
2022-11-25T20:29:30.784Z,3.33
2022-11-25T20:32:26.495Z,3.33
2022-11-25T20:34:59.893Z,3.34
2022-11-25T20:37:40.508Z,3.35
2022-11-25T20:40:18.876Z,3.33
2022-11-25T20:42:51.743Z,3.29
2022-11-25T20:45:25.985Z,3.26
2022-11-25T20:47:59.390Z,3.24
2022-11-25T20:50:32.284Z,3.25
2022-11-25T20:53:11.845Z,3.23
2022-11-25T20:55:48.663Z,3.20
2022-11-25T20:58:26.940Z,3.19
2022-11-25T21:01:00.297Z,3.16
2022-11-25T21:03:32.823Z,3.16
2022-11-25T21:06:13.375Z,3.17
2022-11-25T21:08:45.535Z,3.18
2022-11-25T21:11:18.220Z,3.16
2022-11-25T21:13:51.954Z,3.15
2022-11-25T21:16:25.710Z,3.18
2022-11-25T21:19:00.855Z,3.18
2022-11-25T21:21:35.478Z,3.17
2022-11-25T21:24:18.477Z,3.20
2022-11-25T21:26:50.775Z,3.20
2022-11-25T21:29:23.008Z,3.18
2022-11-25T21:31:55.400Z,3.16
2022-11-25T21:34:27.722Z,3.15
2022-11-25T21:37:01.129Z,3.12
2022-11-25T21:39:35.272Z,3.08
2022-11-25T21:42:15.706Z,3.05
2022-11-25T21:44:47.970Z,3.04
2022-11-25T21:47:22.470Z,3.05
2022-11-25T21:49:57.106Z,3.10
2022-11-25T21:52:30.505Z,3.15
2022-11-25T21:55:02.964Z,3.18
2022-11-25T21:57:35.148Z,3.21
2022-11-25T22:00:18.332Z,3.21
2022-11-25T22:02:54.099Z,3.21
2022-11-25T22:05:26.964Z,3.19
2022-11-25T22:07:59.769Z,3.19
2022-11-25T22:10:32.049Z,3.20
2022-11-25T22:13:06.607Z,3.22
2022-11-25T22:15:38.952Z,3.27
2022-11-25T22:18:19.538Z,3.32
2022-11-25T22:20:53.593Z,3.35
2022-11-25T22:23:26.150Z,3.34
2022-11-25T22:25:59.004Z,3.32
2022-11-25T22:28:32.225Z,3.30
2022-11-25T22:31:08.117Z,3.26
2022-11-25T22:33:40.688Z,3.26
2022-11-25T22:36:30.766Z,3.29
2022-11-25T22:43:20.683Z,3.26
2022-11-25T22:45:53.022Z,3.26
2022-11-25T22:48:32.094Z,3.31
2022-11-25T22:51:04.700Z,3.36
2022-11-25T22:53:36.786Z,3.37
2022-11-25T22:56:17.667Z,3.36
2022-11-25T22:58:49.998Z,3.33
2022-11-25T23:01:27.393Z,3.34
2022-11-25T23:03:59.704Z,3.33
2022-11-25T23:06:32.172Z,3.38
2022-11-25T23:09:07.335Z,3.44
2022-11-25T23:11:41.759Z,3.51
2022-11-25T23:14:14.209Z,3.55
2022-11-25T23:16:46.715Z,3.56
2022-11-25T23:19:20.111Z,3.55
2022-11-25T23:21:55.112Z,3.51
2022-11-25T23:24:28.348Z,3.47
2022-11-25T23:27:00.417Z,3.48
2022-11-25T23:29:33.000Z,3.49
2022-11-25T23:32:07.866Z,3.54
2022-11-25T23:34:40.392Z,3.58
2022-11-25T23:37:17.942Z,3.64
2022-11-25T23:39:52.486Z,3.66
2022-11-25T23:42:26.887Z,3.69
2022-11-25T23:44:59.039Z,3.72
2022-11-25T23:47:31.214Z,3.75
2022-11-25T23:50:03.600Z,3.78
2022-11-25T23:52:36.097Z,3.82
2022-11-25T23:55:13.783Z,3.86
2022-11-25T23:57:48.582Z,3.87
